Etusivu
METAR-TAF:

METAR-TAF

Lentoasemat :

El Oued, Algeria

Leveyspiiri: 33-30-47N, Pituuspiiri: 006-46-57E, korkeus merenpinnasta: 62 m

Tämänhetkinen sää

Tämä raportti tehtiin 59 minuuttia sitten, kello 14.00 UTC
Tuuli 7 kn lännestä
Lämpötila 36°C
Kosteus 19%
Ilmanpaine 1012 hPa
Näkyvyys 10 km tai enemmän
ei pilviä alle 1500 m:ssä eikä cumulonimbus-pilviä

METAR: DAUO 061400Z 28007KT CAVOK 36/09 Q1012

Aika: 15:59 (14:59 UTC)

Sääennuste

Tämä raportti tehtiin 3 tuntia ja 59 minuuttia sitten, kello 11.00 UTC
Ennuste voimassa 06. päivästä klo 12 UTC - 06. päivään klo 21 UTC
Tuuli 6 kn idästä
Näkyvyys 10 km tai enemmän
Hajanaisia pilviä 4600 ft:n korkeudessa

TAF: DAUO 061100Z 0612/0621 10006KT 9999 SCT046

Säähavainnot ja -ennusteet yli 4000 lentoasemalta (METAR- ja TAF-raportit).

Käytössä olevat sääasemat on merkitty karttaan keltaisilla ja punaisilla pisteillä.

Aseta hiiri pisteen päälle nähdäksesi sääaseman nimen.

Klikkaa sitten nähdäksesi säähavainnot ja -ennusteet.

Kartan vaihtaminen: klikkaa mustalla rastilla varustettuja vihreitä pisteitä, niin voit zoomata sisään; viivalla varustettua vihreää pistettä, niin voit zoomata ulos tai vihreitä nuolia, niin pääset viereisille kartoille.


METAR-TAF: